Time;durP1;ratioP1;P1;durP2;ratioP2;P2;SDS_P1;SDS_P2;PMS_P1;PMS_P2;Temp;Humidity;BMP_temperature;BMP_pressure;BME280_temperature;BME280_humidity;BME280_pressure;Samples;Min_cycle;Max_cycle;Signal;HPM_P1;HPM_P2
2023/03/25 00:02:23;;;;;;;73.73;25.03;;;22.90;58.90;;;;;;5068430;28;20470;-70
2023/03/25 00:04:52;;;;;;;80.40;27.57;;;22.90;58.80;;;;;;5066137;28;20474;-67
2023/03/25 00:07:22;;;;;;;79.17;25.40;;;22.90;58.80;;;;;;5068970;28;20462;-66
2023/03/25 00:09:50;;;;;;;64.77;25.60;;;22.90;58.80;;;;;;5053974;28;20439;-66
2023/03/25 00:12:18;;;;;;;82.30;27.83;;;22.90;58.70;;;;;;5051957;28;20921;-65
2023/03/25 00:14:53;;;;;;;65.87;24.60;;;22.90;58.90;;;;;;5051423;28;20454;-65
2023/03/25 00:17:21;;;;;;;74.57;23.53;;;22.90;58.80;;;;;;5059204;28;20461;-65
2023/03/25 00:19:50;;;;;;;61.97;23.97;;;22.90;58.70;;;;;;5069588;28;20494;-65
2023/03/25 00:22:19;;;;;;;64.13;22.43;;;22.90;58.60;;;;;;5072201;28;20450;-65
2023/03/25 00:24:49;;;;;;;54.47;21.43;;;22.90;58.40;;;;;;5072131;28;20457;-65
2023/03/25 00:27:18;;;;;;;63.37;22.77;;;22.80;58.40;;;;;;5061849;28;20455;-65
2023/03/25 00:29:46;;;;;;;58.23;22.57;;;22.80;58.40;;;;;;5050772;28;20490;-65
2023/03/25 00:32:15;;;;;;;66.20;21.90;;;22.80;58.30;;;;;;5040618;28;20875;-65
2023/03/25 00:34:46;;;;;;;62.00;21.93;;;22.80;58.30;;;;;;5071278;28;20487;-65
2023/03/25 00:37:17;;;;;;;59.17;21.90;;;22.80;58.40;;;;;;5072466;28;20444;-64
2023/03/25 00:39:45;;;;;;;50.50;20.33;;;22.70;58.40;;;;;;5072205;28;20426;-67
2023/03/25 00:42:24;;;;;;;53.47;20.47;;;22.70;58.40;;;;;;5064673;28;20999;-65
2023/03/25 00:44:53;;;;;;;56.40;19.10;;;22.70;58.30;;;;;;5058925;28;20454;-65
2023/03/25 00:47:23;;;;;;;56.80;20.60;;;22.70;58.20;;;;;;5070712;28;20457;-66
2023/03/25 00:49:51;;;;;;;57.40;20.13;;;22.70;58.50;;;;;;5062339;28;20442;-65
2023/03/25 00:52:21;;;;;;;49.37;17.90;;;22.70;58.50;;;;;;5052462;28;20442;-65
2023/03/25 00:54:51;;;;;;;50.37;18.50;;;22.70;58.20;;;;;;5054332;28;20863;-64
2023/03/25 00:57:22;;;;;;;48.70;17.47;;;22.60;58.50;;;;;;5053208;28;20962;-65
2023/03/25 00:59:50;;;;;;;43.30;18.33;;;22.60;58.20;;;;;;5070559;28;20949;-70
2023/03/25 01:02:20;;;;;;;42.00;16.20;;;22.60;58.30;;;;;;5069598;28;20547;-65
2023/03/25 01:04:49;;;;;;;43.40;18.93;;;22.60;58.40;;;;;;5052835;28;20827;-65
2023/03/25 01:07:19;;;;;;;52.73;16.53;;;22.60;58.60;;;;;;5071796;28;20477;-64
2023/03/25 01:09:48;;;;;;;40.67;16.30;;;22.60;58.30;;;;;;5053282;28;20792;-65
2023/03/25 01:12:17;;;;;;;53.57;17.87;;;22.60;58.60;;;;;;5071686;28;20987;-65
2023/03/25 01:14:48;;;;;;;39.30;16.60;;;22.60;58.60;;;;;;5071383;28;20452;-68
2023/03/25 01:17:16;;;;;;;47.87;17.30;;;22.60;58.60;;;;;;5047435;28;20473;-65
2023/03/25 01:19:44;;;;;;;42.17;16.60;;;22.60;58.60;;;;;;5066521;28;20543;-64
2023/03/25 01:22:14;;;;;;;44.50;16.00;;;22.60;58.60;;;;;;5065738;28;20466;-65
2023/03/25 01:24:42;;;;;;;36.47;15.70;;;22.60;58.60;;;;;;5069499;28;20456;-65
2023/03/25 01:27:11;;;;;;;32.80;13.90;;;22.60;58.40;;;;;;5070313;28;21147;-65
2023/03/25 01:29:39;;;;;;;35.47;15.00;;;22.60;58.40;;;;;;5053019;28;20993;-65
2023/03/25 01:32:08;;;;;;;32.10;13.53;;;22.60;58.30;;;;;;5052646;28;20496;-65
2023/03/25 01:34:37;;;;;;;32.87;14.60;;;22.60;58.30;;;;;;5070673;28;20453;-67
2023/03/25 01:37:06;;;;;;;41.63;13.90;;;22.60;58.40;;;;;;5051537;28;20457;-66
2023/03/25 01:39:34;;;;;;;34.00;13.83;;;22.60;58.50;;;;;;5032960;28;20476;-65
2023/03/25 01:42:03;;;;;;;33.77;14.17;;;22.60;58.50;;;;;;5034004;28;20499;-66
2023/03/25 01:45:12;;;;;;;30.90;13.10;;;22.70;58.40;;;;;;5050915;28;20457;-65
2023/03/25 01:47:43;;;;;;;30.60;12.93;;;22.70;58.20;;;;;;5039621;28;20534;-65
2023/03/25 01:50:13;;;;;;;31.00;14.17;;;22.70;58.30;;;;;;5068088;28;20507;-65
2023/03/25 01:52:45;;;;;;;24.70;11.83;;;22.70;58.40;;;;;;5052510;28;20498;-66
2023/03/25 01:55:16;;;;;;;32.20;12.60;;;22.70;58.30;;;;;;5052718;28;20889;-65
2023/03/25 01:57:45;;;;;;;23.70;11.93;;;22.70;58.30;;;;;;5036334;28;20548;-65
2023/03/25 02:00:15;;;;;;;30.80;11.40;;;22.70;58.20;;;;;;5070408;28;20421;-67
2023/03/25 02:02:46;;;;;;;28.67;10.40;;;22.70;58.00;;;;;;5057387;28;20556;-65
2023/03/25 02:05:20;;;;;;;25.53;10.80;;;22.70;58.20;;;;;;5052668;28;20474;-65
2023/03/25 02:07:49;;;;;;;25.20;10.70;;;22.70;58.20;;;;;;5068963;28;20472;-66
2023/03/25 02:10:18;;;;;;;27.23;11.70;;;22.70;58.10;;;;;;5072037;28;20429;-65
2023/03/25 02:12:46;;;;;;;23.53;10.33;;;22.70;58.10;;;;;;5075076;28;20475;-64
2023/03/25 02:15:17;;;;;;;19.70;10.10;;;22.70;58.10;;;;;;5049997;28;20549;-66
2023/03/25 02:18:16;;;;;;;30.23;10.30;;;22.70;58.10;;;;;;5072267;28;20466;-65
2023/03/25 02:21:32;;;;;;;23.70;9.77;;;22.70;58.10;;;;;;5056603;28;20565;-65
2023/03/25 02:24:52;;;;;;;19.17;10.03;;;22.70;58.00;;;;;;4997576;28;20464;-65
2023/03/25 02:27:32;;;;;;;15.27;7.83;;;22.60;57.80;;;;;;4994263;28;20487;-68
2023/03/25 02:30:29;;;;;;;20.20;8.63;;;22.60;58.10;;;;;;5059583;28;20456;-65
2023/03/25 02:33:23;;;;;;;25.30;9.80;;;22.60;58.10;;;;;;5053723;28;20998;-65
2023/03/25 02:36:29;;;;;;;24.50;9.07;;;22.60;58.10;;;;;;5051197;28;20554;-64
2023/03/25 02:39:02;;;;;;;17.57;8.17;;;22.60;58.00;;;;;;5070179;28;20489;-65
2023/03/25 02:41:40;;;;;;;18.10;8.77;;;22.60;58.10;;;;;;5073485;28;20466;-64
2023/03/25 02:44:12;;;;;;;16.27;8.20;;;22.60;58.10;;;;;;5060430;28;20473;-65
2023/03/25 02:46:45;;;;;;;17.63;7.93;;;22.60;58.00;;;;;;5072549;28;20498;-65
2023/03/25 02:49:19;;;;;;;17.93;7.47;;;22.60;58.00;;;;;;5053877;28;20472;-66
2023/03/25 02:51:53;;;;;;;13.63;7.83;;;22.60;58.00;;;;;;5074612;28;20481;-65
2023/03/25 02:54:25;;;;;;;13.03;6.70;;;22.60;58.00;;;;;;5055921;28;20858;-65
2023/03/25 02:56:56;;;;;;;13.23;6.87;;;22.60;58.00;;;;;;5067840;28;20486;-68
2023/03/25 02:59:28;;;;;;;14.80;7.40;;;22.60;58.00;;;;;;5068806;28;20454;-66
2023/03/25 03:02:00;;;;;;;16.37;7.37;;;22.60;58.10;;;;;;5074200;28;20814;-65
2023/03/25 03:04:28;;;;;;;14.20;7.10;;;22.60;58.00;;;;;;5071748;28;20484;-65
2023/03/25 03:06:57;;;;;;;12.57;6.90;;;22.60;58.10;;;;;;5062260;28;20469;-65
2023/03/25 03:09:36;;;;;;;15.37;7.50;;;22.60;58.00;;;;;;5071264;28;20530;-64
2023/03/25 03:12:15;;;;;;;13.50;6.37;;;22.60;58.00;;;;;;5072654;28;20452;-64
2023/03/25 03:14:56;;;;;;;10.83;5.63;;;22.60;58.00;;;;;;5073599;28;20898;-64
2023/03/25 03:17:32;;;;;;;10.77;6.43;;;22.60;57.70;;;;;;5072088;28;20875;-66
2023/03/25 03:20:13;;;;;;;17.67;7.03;;;22.60;57.80;;;;;;5051987;28;20482;-65
2023/03/25 03:22:51;;;;;;;10.60;6.00;;;22.50;58.00;;;;;;5062704;28;20548;-70
2023/03/25 03:25:28;;;;;;;11.83;5.87;;;22.50;58.00;;;;;;5073787;28;20446;-64
2023/03/25 03:28:03;;;;;;;9.00;5.83;;;22.50;57.90;;;;;;5070455;28;20480;-64
2023/03/25 03:30:37;;;;;;;9.97;5.40;;;22.50;58.10;;;;;;5052973;28;20815;-65
2023/03/25 03:33:12;;;;;;;15.53;5.93;;;22.50;58.00;;;;;;5053536;28;20788;-65
2023/03/25 03:35:48;;;;;;;14.40;5.87;;;22.50;58.10;;;;;;5060646;28;20453;-64
2023/03/25 03:38:21;;;;;;;11.60;4.57;;;22.60;58.00;;;;;;5073337;28;20516;-65
2023/03/25 03:40:55;;;;;;;9.73;4.00;;;22.60;57.90;;;;;;5073778;28;20433;-65
2023/03/25 03:43:31;;;;;;;8.93;4.87;;;22.60;57.80;;;;;;5073056;28;20446;-65
2023/03/25 03:46:03;;;;;;;9.37;4.80;;;22.60;57.70;;;;;;5064983;28;20453;-66
2023/03/25 03:48:37;;;;;;;8.20;4.10;;;22.70;57.70;;;;;;5066362;28;20501;-65
2023/03/25 03:51:10;;;;;;;10.00;5.10;;;22.70;57.70;;;;;;5052482;28;20439;-64
2023/03/25 03:53:41;;;;;;;7.03;3.93;;;22.70;57.60;;;;;;5052495;28;20438;-68
2023/03/25 03:56:18;;;;;;;7.83;4.90;;;22.70;57.60;;;;;;5054336;28;20871;-65
2023/03/25 03:58:48;;;;;;;11.90;4.63;;;22.70;57.60;;;;;;5059673;28;22509;-68
2023/03/25 04:01:26;;;;;;;9.60;4.63;;;22.70;57.60;;;;;;5067364;28;21107;-64
2023/03/25 04:03:57;;;;;;;8.33;4.20;;;22.70;57.60;;;;;;5070662;28;20520;-65
2023/03/25 04:06:34;;;;;;;8.03;4.80;;;22.70;57.60;;;;;;5068880;28;20455;-66
2023/03/25 04:09:09;;;;;;;6.57;4.30;;;22.70;57.60;;;;;;5058975;28;20471;-65
2023/03/25 04:11:43;;;;;;;8.73;4.47;;;22.70;57.60;;;;;;5052862;28;20434;-65
2023/03/25 04:14:13;;;;;;;8.73;4.20;;;22.60;57.50;;;;;;5052381;28;20919;-64
2023/03/25 04:16:44;;;;;;;10.90;4.80;;;22.60;57.50;;;;;;5063875;28;20451;-65
2023/03/25 04:19:17;;;;;;;7.93;3.80;;;22.60;57.50;;;;;;5061240;28;20499;-68
2023/03/25 04:21:47;;;;;;;8.10;4.13;;;22.60;57.60;;;;;;5024927;28;20482;-66
2023/03/25 04:24:18;;;;;;;8.30;4.27;;;22.60;57.70;;;;;;5030690;28;20539;-67
2023/03/25 04:26:48;;;;;;;11.20;5.33;;;22.60;58.00;;;;;;5026501;28;20543;-67
2023/03/25 04:29:17;;;;;;;6.60;3.43;;;22.60;58.30;;;;;;5023716;28;20480;-66
2023/03/25 04:31:49;;;;;;;7.43;4.33;;;22.50;58.60;;;;;;5030145;28;20481;-66
2023/03/25 04:34:19;;;;;;;10.63;4.20;;;22.50;58.70;;;;;;5020067;28;20464;-66
2023/03/25 04:36:48;;;;;;;10.00;5.00;;;22.50;58.80;;;;;;5029783;28;20478;-67
2023/03/25 04:39:21;;;;;;;10.73;4.70;;;22.50;58.90;;;;;;5025702;28;20474;-67
2023/03/25 04:41:52;;;;;;;9.67;4.40;;;22.50;59.00;;;;;;5020417;28;21305;-67
2023/03/25 04:44:22;;;;;;;10.60;4.93;;;22.50;59.00;;;;;;5023117;28;20447;-67
2023/03/25 04:46:50;;;;;;;10.03;4.60;;;22.50;59.10;;;;;;5027170;28;20518;-66
2023/03/25 04:49:20;;;;;;;13.17;4.43;;;22.50;59.20;;;;;;5043229;28;20482;-68
2023/03/25 04:51:50;;;;;;;6.47;3.70;;;22.50;59.30;;;;;;5034683;28;20454;-68
2023/03/25 04:54:19;;;;;;;11.67;4.83;;;22.50;59.30;;;;;;5028129;28;20453;-67
2023/03/25 04:56:48;;;;;;;11.20;4.47;;;22.50;59.40;;;;;;5014641;28;20816;-68
2023/03/25 04:59:19;;;;;;;6.60;3.83;;;22.50;59.40;;;;;;5023247;28;20459;-67
2023/03/25 05:01:48;;;;;;;6.40;4.60;;;22.50;59.40;;;;;;5025648;28;20444;-67
2023/03/25 05:04:18;;;;;;;12.77;5.07;;;22.50;59.40;;;;;;5023015;28;20456;-67
2023/03/25 05:06:50;;;;;;;5.70;3.53;;;22.50;59.40;;;;;;5012061;28;20468;-67
2023/03/25 05:09:20;;;;;;;8.60;4.50;;;22.50;59.50;;;;;;5025309;28;20474;-67
2023/03/25 05:11:50;;;;;;;9.63;3.50;;;22.60;59.40;;;;;;5018302;28;20494;-67
2023/03/25 05:14:21;;;;;;;9.90;4.63;;;22.60;59.40;;;;;;5028759;28;20850;-67
2023/03/25 05:16:49;;;;;;;7.13;4.50;;;22.60;59.40;;;;;;5026270;28;20806;-67
2023/03/25 05:19:19;;;;;;;8.97;4.00;;;22.60;59.40;;;;;;5028257;28;20455;-67
2023/03/25 05:21:47;;;;;;;7.20;3.80;;;22.60;59.40;;;;;;5070548;28;21003;-66
2023/03/25 05:24:16;;;;;;;6.23;3.83;;;22.60;59.40;;;;;;5059695;28;20449;-67
2023/03/25 05:26:44;;;;;;;5.80;3.37;;;22.60;59.40;;;;;;5070673;28;20485;-68
2023/03/25 05:29:15;;;;;;;5.37;3.70;;;22.60;59.30;;;;;;5061057;28;20481;-67
2023/03/25 05:31:47;;;;;;;6.20;4.00;;;22.60;59.30;;;;;;5068320;28;20452;-67
2023/03/25 05:34:15;;;;;;;6.50;3.33;;;22.60;59.00;;;;;;5080007;28;20478;-68
2023/03/25 05:36:44;;;;;;;7.67;4.00;;;22.60;59.20;;;;;;5057082;28;20446;-67
2023/03/25 05:39:13;;;;;;;8.20;3.77;;;22.50;59.20;;;;;;5066993;28;20519;-67
2023/03/25 05:41:41;;;;;;;5.97;4.10;;;22.50;59.10;;;;;;5054314;28;20544;-67
2023/03/25 05:44:14;;;;;;;6.47;3.93;;;22.60;59.30;;;;;;5068192;28;20508;-67
2023/03/25 05:46:44;;;;;;;6.27;3.77;;;22.60;59.40;;;;;;5071436;28;20431;-67
2023/03/25 05:49:12;;;;;;;6.80;3.37;;;22.60;59.30;;;;;;5059847;28;20498;-68
2023/03/25 05:51:40;;;;;;;6.40;3.50;;;22.60;59.40;;;;;;5051172;28;20854;-67
2023/03/25 05:54:09;;;;;;;7.10;3.60;;;22.60;59.10;;;;;;5064395;28;20460;-66
2023/03/25 05:56:40;;;;;;;4.57;3.33;;;22.50;58.80;;;;;;5063869;28;21354;-67
2023/03/25 05:59:09;;;;;;;4.60;2.93;;;22.50;59.00;;;;;;5070596;28;20453;-67
2023/03/25 06:01:37;;;;;;;6.33;4.30;;;22.50;58.90;;;;;;5067227;28;20463;-67
2023/03/25 06:04:08;;;;;;;9.17;3.83;;;22.50;59.00;;;;;;5068431;28;20541;-66
2023/03/25 06:06:38;;;;;;;4.67;3.13;;;22.50;59.10;;;;;;5061729;28;20456;-66
2023/03/25 06:09:07;;;;;;;6.07;3.20;;;22.50;59.20;;;;;;5070546;28;20477;-67
2023/03/25 06:11:37;;;;;;;4.20;2.50;;;22.50;59.10;;;;;;5062677;28;20855;-66
2023/03/25 06:14:06;;;;;;;5.63;3.50;;;22.50;59.10;;;;;;5071069;28;20469;-66
2023/03/25 06:16:35;;;;;;;5.17;3.20;;;22.50;59.20;;;;;;5057557;28;20462;-67
2023/03/25 06:19:04;;;;;;;3.57;2.97;;;22.40;59.50;;;;;;5040638;28;20453;-68
2023/03/25 06:21:36;;;;;;;4.73;3.80;;;22.40;59.50;;;;;;5053130;28;20546;-66
2023/03/25 06:24:04;;;;;;;3.80;2.47;;;22.40;59.40;;;;;;5055680;28;20541;-67
2023/03/25 06:26:33;;;;;;;6.60;3.20;;;22.40;59.30;;;;;;5054738;28;20486;-67
2023/03/25 06:29:03;;;;;;;5.50;2.53;;;22.40;59.50;;;;;;5039032;28;20557;-67
2023/03/25 06:31:32;;;;;;;4.20;2.47;;;22.40;59.30;;;;;;5064693;28;20541;-67
2023/03/25 06:34:01;;;;;;;3.90;2.80;;;22.40;59.30;;;;;;5063784;28;20457;-67
2023/03/25 06:36:30;;;;;;;3.70;2.53;;;22.40;59.20;;;;;;5062511;28;21129;-68
2023/03/25 06:39:00;;;;;;;4.50;2.27;;;22.40;59.00;;;;;;5065921;28;20453;-66
2023/03/25 06:41:29;;;;;;;4.87;2.67;;;22.40;59.10;;;;;;5047447;28;20532;-67
2023/03/25 06:44:12;;;;;;;2.93;2.70;;;22.40;59.40;;;;;;5045449;28;20481;-67
2023/03/25 06:46:46;;;;;;;5.30;2.27;;;22.30;59.10;;;;;;5067270;28;20452;-67
2023/03/25 06:49:23;;;;;;;4.63;3.10;;;22.30;59.00;;;;;;5066577;28;20601;-68
2023/03/25 06:51:54;;;;;;;3.30;2.80;;;22.40;59.20;;;;;;5047837;28;20461;-67
2023/03/25 06:54:24;;;;;;;4.30;2.60;;;22.40;59.20;;;;;;5063420;28;20440;-67
2023/03/25 06:56:52;;;;;;;8.27;3.90;;;22.40;59.40;;;;;;5070493;28;20595;-68
2023/03/25 06:59:21;;;;;;;6.77;3.43;;;22.30;64.20;;;;;;5070953;28;20489;-69
2023/03/25 07:01:49;;;;;;;5.90;3.67;;;22.40;63.90;;;;;;5071841;28;20472;-67
2023/03/25 07:04:17;;;;;;;6.63;3.20;;;22.40;62.30;;;;;;5056943;28;20451;-67
2023/03/25 07:06:46;;;;;;;4.27;3.00;;;22.40;61.80;;;;;;5064093;28;20503;-67
2023/03/25 07:09:15;;;;;;;4.90;2.30;;;22.40;61.50;;;;;;5052027;28;20801;-67
2023/03/25 07:11:44;;;;;;;6.97;4.20;;;22.50;61.00;;;;;;5072381;28;20472;-68
2023/03/25 07:14:12;;;;;;;4.33;2.70;;;22.50;61.00;;;;;;5071694;28;20464;-68
2023/03/25 07:16:41;;;;;;;7.00;3.40;;;22.50;60.90;;;;;;5059574;28;20564;-66
2023/03/25 07:19:09;;;;;;;9.70;3.93;;;22.50;60.70;;;;;;5066436;28;20474;-66
2023/03/25 07:21:37;;;;;;;10.37;3.77;;;22.50;62.00;;;;;;5055255;28;20489;-66
2023/03/25 07:24:06;;;;;;;7.30;3.10;;;22.50;62.30;;;;;;5047304;28;21381;-66
2023/03/25 07:26:34;;;;;;;7.80;3.03;;;22.50;62.60;;;;;;5071096;28;20447;-66
2023/03/25 07:29:04;;;;;;;6.27;3.03;;;22.50;62.40;;;;;;5064710;28;20657;-69
2023/03/25 07:31:33;;;;;;;7.97;2.53;;;22.50;62.40;;;;;;5059192;28;20457;-67
2023/03/25 07:34:01;;;;;;;11.30;3.70;;;22.60;62.30;;;;;;5056231;28;20462;-66
2023/03/25 07:36:29;;;;;;;7.67;3.23;;;22.60;62.30;;;;;;5058738;28;20467;-68
2023/03/25 07:38:58;;;;;;;5.00;3.30;;;22.60;61.70;;;;;;5062333;28;20461;-66
2023/03/25 07:41:26;;;;;;;8.87;3.13;;;22.60;61.70;;;;;;5070952;28;20544;-66
2023/03/25 07:44:19;;;;;;;6.20;3.00;;;22.60;62.10;;;;;;5056112;28;20498;-66
2023/03/25 07:46:49;;;;;;;5.33;3.00;;;22.60;61.70;;;;;;5051254;28;20491;-67
2023/03/25 07:49:18;;;;;;;10.27;2.90;;;22.60;61.70;;;;;;5059868;28;20553;-66
2023/03/25 07:51:46;;;;;;;9.77;3.20;;;22.60;61.70;;;;;;5064316;28;20469;-71
2023/03/25 07:54:14;;;;;;;7.97;3.67;;;22.60;61.90;;;;;;5065334;28;20544;-70
2023/03/25 07:56:43;;;;;;;5.70;3.53;;;22.60;61.50;;;;;;5066394;28;20546;-67
2023/03/25 07:59:11;;;;;;;4.17;2.87;;;22.60;61.50;;;;;;5062740;28;20489;-69
2023/03/25 08:01:40;;;;;;;5.37;2.30;;;22.60;61.20;;;;;;5062158;28;20545;-66
2023/03/25 08:04:08;;;;;;;10.27;2.90;;;22.50;61.80;;;;;;5059385;28;20464;-66
2023/03/25 08:06:37;;;;;;;6.23;2.57;;;22.50;61.20;;;;;;5066090;28;20499;-66
2023/03/25 08:09:05;;;;;;;5.83;2.70;;;22.50;61.50;;;;;;5062701;28;20599;-66
2023/03/25 08:11:34;;;;;;;9.37;3.20;;;22.50;61.30;;;;;;5061118;28;20520;-69
2023/03/25 08:14:02;;;;;;;12.67;2.83;;;22.50;61.30;;;;;;5060275;28;20966;-69
2023/03/25 08:16:30;;;;;;;7.60;3.00;;;22.50;61.50;;;;;;5061357;28;20524;-73
2023/03/25 08:19:00;;;;;;;6.17;2.57;;;22.50;61.40;;;;;;5059912;28;20459;-71
2023/03/25 08:21:29;;;;;;;5.77;3.07;;;22.50;61.00;;;;;;5056569;28;20499;-72
2023/03/25 08:24:01;;;;;;;5.37;2.37;;;22.50;61.50;;;;;;5051972;28;20528;-69
2023/03/25 08:26:30;;;;;;;3.20;2.67;;;22.50;61.50;;;;;;5043667;28;20482;-69
2023/03/25 08:29:01;;;;;;;7.67;3.33;;;22.50;61.50;;;;;;5058889;28;20969;-70
2023/03/25 08:31:32;;;;;;;6.50;2.60;;;22.50;61.50;;;;;;5069263;28;20508;-70
2023/03/25 08:34:02;;;;;;;6.27;2.83;;;22.50;61.00;;;;;;5061574;28;20473;-70
2023/03/25 08:36:31;;;;;;;6.20;3.07;;;22.50;61.50;;;;;;5056972;28;20852;-69
2023/03/25 08:39:00;;;;;;;5.20;2.40;;;22.50;61.20;;;;;;5053020;28;20450;-70
2023/03/25 08:41:28;;;;;;;5.37;2.57;;;22.50;61.30;;;;;;5054645;28;20466;-69
2023/03/25 08:43:56;;;;;;;6.20;2.30;;;22.50;61.40;;;;;;5054226;28;20490;-68
2023/03/25 08:46:24;;;;;;;3.90;2.20;;;22.50;61.40;;;;;;5062176;28;20594;-66
2023/03/25 08:48:53;;;;;;;4.30;2.20;;;22.50;61.50;;;;;;5055203;28;20552;-66
2023/03/25 08:51:22;;;;;;;4.03;2.53;;;22.50;61.40;;;;;;5060918;28;20473;-66
2023/03/25 08:53:50;;;;;;;7.10;2.60;;;22.50;61.50;;;;;;5054804;28;20450;-66
2023/03/25 08:56:19;;;;;;;5.30;3.00;;;22.50;61.30;;;;;;5067580;28;20449;-66
2023/03/25 08:58:47;;;;;;;4.20;2.30;;;22.50;61.70;;;;;;5070871;28;20447;-66
2023/03/25 09:01:15;;;;;;;4.77;2.50;;;22.50;61.80;;;;;;5053651;28;20552;-65
2023/03/25 09:03:43;;;;;;;4.50;2.03;;;22.50;61.30;;;;;;5071515;28;20430;-66
2023/03/25 09:06:11;;;;;;;4.23;2.30;;;22.50;61.50;;;;;;5070330;28;20481;-68
2023/03/25 09:08:41;;;;;;;2.87;1.40;;;22.50;61.30;;;;;;5070782;28;20537;-66
2023/03/25 09:11:10;;;;;;;3.03;2.47;;;22.50;61.20;;;;;;5069019;28;21010;-66
2023/03/25 09:13:39;;;;;;;3.27;1.50;;;22.60;61.30;;;;;;5068639;28;20465;-66
2023/03/25 09:16:08;;;;;;;5.20;2.73;;;22.60;61.00;;;;;;5069320;28;20952;-66
2023/03/25 09:18:36;;;;;;;4.77;2.53;;;22.60;61.00;;;;;;5068970;28;20816;-67
2023/03/25 09:21:05;;;;;;;3.47;1.70;;;22.60;60.70;;;;;;5068026;28;20564;-67
2023/03/25 09:23:33;;;;;;;2.23;1.87;;;22.60;60.70;;;;;;5069849;28;20426;-66
2023/03/25 09:26:04;;;;;;;2.43;1.60;;;22.60;60.60;;;;;;5071174;28;20546;-67
2023/03/25 09:28:32;;;;;;;4.73;2.07;;;22.50;60.60;;;;;;5070558;28;20435;-66
2023/03/25 09:31:00;;;;;;;2.07;1.57;;;22.50;60.60;;;;;;5070772;28;20462;-66
2023/03/25 09:33:28;;;;;;;5.70;1.73;;;22.50;60.40;;;;;;5062188;28;20565;-66
2023/03/25 09:35:57;;;;;;;4.23;1.70;;;22.50;60.30;;;;;;5051161;28;20451;-66
2023/03/25 09:38:25;;;;;;;3.97;1.97;;;22.50;60.40;;;;;;5069080;28;20964;-66
2023/03/25 09:40:53;;;;;;;4.13;1.83;;;22.50;60.50;;;;;;5069498;28;20464;-68
2023/03/25 09:43:35;;;;;;;3.07;1.50;;;22.50;60.30;;;;;;5070963;28;20496;-67
2023/03/25 09:46:05;;;;;;;2.50;1.40;;;22.50;60.30;;;;;;5070601;28;20523;-66
2023/03/25 09:48:37;;;;;;;3.07;1.77;;;22.50;60.10;;;;;;5071134;28;20981;-66
2023/03/25 09:51:11;;;;;;;1.70;1.30;;;22.50;60.00;;;;;;5068441;28;20484;-66
2023/03/25 09:53:46;;;;;;;3.67;2.20;;;22.50;60.00;;;;;;5071195;28;20529;-66
2023/03/25 09:56:17;;;;;;;5.77;1.70;;;22.50;60.10;;;;;;5071456;28;20896;-66
2023/03/25 09:58:49;;;;;;;3.13;1.40;;;22.50;59.90;;;;;;5070488;28;20456;-66
2023/03/25 10:01:34;;;;;;;2.23;1.60;;;22.50;59.90;;;;;;5071065;28;20430;-66
2023/03/25 10:04:27;;;;;;;1.70;1.33;;;22.50;59.80;;;;;;5070438;28;20933;-66
2023/03/25 10:07:06;;;;;;;2.23;1.53;;;22.50;59.80;;;;;;5071347;28;20461;-67
2023/03/25 10:09:45;;;;;;;2.00;1.10;;;22.50;59.80;;;;;;5068734;28;20449;-68
2023/03/25 10:12:29;;;;;;;1.30;1.03;;;22.50;59.80;;;;;;5070509;28;20468;-66
2023/03/25 10:15:14;;;;;;;1.37;1.00;;;22.50;59.70;;;;;;5070969;28;20446;-66
2023/03/25 10:17:55;;;;;;;1.27;1.10;;;22.50;59.80;;;;;;5071183;28;20796;-65
2023/03/25 10:20:37;;;;;;;1.67;1.10;;;22.50;59.60;;;;;;5052910;28;20490;-66
2023/03/25 10:23:13;;;;;;;3.70;1.50;;;22.60;59.60;;;;;;5050455;28;20857;-66
2023/03/25 10:25:47;;;;;;;1.40;1.30;;;22.60;59.40;;;;;;5050841;28;20842;-67
2023/03/25 10:28:20;;;;;;;5.50;1.20;;;22.60;59.60;;;;;;5050582;28;20429;-65
2023/03/25 10:30:52;;;;;;;2.20;1.00;;;22.60;59.20;;;;;;5051061;28;20466;-66
2023/03/25 10:33:28;;;;;;;1.27;0.97;;;22.70;59.30;;;;;;5055036;28;20471;-66
2023/03/25 10:35:59;;;;;;;1.63;1.07;;;22.70;59.10;;;;;;5060314;28;20438;-65
2023/03/25 10:38:32;;;;;;;2.57;1.00;;;22.80;59.00;;;;;;5073559;28;20459;-66
2023/03/25 10:41:14;;;;;;;1.60;0.90;;;22.80;59.00;;;;;;5072083;28;20453;-66
2023/03/25 10:43:43;;;;;;;1.63;1.00;;;22.80;58.80;;;;;;5056784;28;20500;-66
2023/03/25 10:46:18;;;;;;;1.27;1.17;;;22.80;58.70;;;;;;5055280;28;20463;-66
2023/03/25 10:48:48;;;;;;;0.90;0.80;;;22.80;58.80;;;;;;5068444;28;20445;-68
2023/03/25 10:51:19;;;;;;;0.67;0.67;;;22.90;58.80;;;;;;5055507;28;20494;-65
2023/03/25 10:53:51;;;;;;;1.53;1.00;;;22.90;58.60;;;;;;5055406;28;20424;-65
2023/03/25 10:56:24;;;;;;;2.00;0.83;;;22.90;58.60;;;;;;5073181;28;20972;-65
2023/03/25 10:58:54;;;;;;;1.77;0.90;;;22.90;58.70;;;;;;5072364;28;20541;-66
2023/03/25 11:01:34;;;;;;;1.40;1.30;;;23.00;58.60;;;;;;5057150;28;20460;-67
2023/03/25 11:04:04;;;;;;;1.37;1.00;;;23.20;58.40;;;;;;5059451;28;20451;-67
2023/03/25 11:06:38;;;;;;;2.87;1.30;;;23.30;57.90;;;;;;5061682;28;20447;-66
2023/03/25 11:09:17;;;;;;;1.40;0.80;;;23.40;57.70;;;;;;5073134;28;20530;-65
2023/03/25 11:11:46;;;;;;;1.00;0.90;;;23.60;57.40;;;;;;5062817;28;20505;-68
2023/03/25 11:14:15;;;;;;;1.10;0.87;;;23.70;57.20;;;;;;5072267;28;20496;-66
2023/03/25 11:16:48;;;;;;;0.93;0.80;;;23.80;56.90;;;;;;5073549;28;20441;-66
2023/03/25 11:19:20;;;;;;;1.67;1.10;;;23.90;56.70;;;;;;5064850;28;20811;-66
2023/03/25 11:21:54;;;;;;;1.73;0.70;;;23.80;56.70;;;;;;5073628;28;20453;-66
2023/03/25 11:24:27;;;;;;;1.07;0.80;;;23.90;56.70;;;;;;5092215;28;20450;-66
2023/03/25 11:26:56;;;;;;;2.40;0.83;;;24.10;56.50;;;;;;5094005;28;20447;-66
2023/03/25 11:29:27;;;;;;;0.70;0.70;;;24.30;55.90;;;;;;5075414;28;20858;-66
2023/03/25 11:32:04;;;;;;;1.00;0.67;;;24.40;55.50;;;;;;5093782;28;21295;-66
2023/03/25 11:34:33;;;;;;;1.30;0.70;;;24.60;55.10;;;;;;5082554;28;20438;-66
2023/03/25 11:37:07;;;;;;;2.60;0.90;;;24.80;54.70;;;;;;5073736;28;20440;-66
2023/03/25 11:39:39;;;;;;;2.00;0.70;;;24.90;54.30;;;;;;5072193;28;20447;-65
2023/03/25 11:42:21;;;;;;;0.50;0.47;;;25.10;54.00;;;;;;5064528;28;20448;-66
2023/03/25 11:44:52;;;;;;;0.97;0.60;;;25.10;53.80;;;;;;5052919;28;20833;-65
2023/03/25 11:47:25;;;;;;;0.67;0.67;;;25.10;53.70;;;;;;5052597;28;20892;-65
2023/03/25 11:49:54;;;;;;;0.40;0.40;;;25.00;53.80;;;;;;5052010;28;20494;-66
2023/03/25 11:52:26;;;;;;;0.97;0.67;;;24.80;54.00;;;;;;5052927;28;20480;-67
2023/03/25 11:54:55;;;;;;;0.50;0.40;;;24.70;54.20;;;;;;5064132;28;20964;-66
2023/03/25 11:57:27;;;;;;;0.70;0.60;;;24.50;54.20;;;;;;5072564;28;20834;-68
2023/03/25 12:00:09;;;;;;;0.97;0.50;;;24.40;54.50;;;;;;5070656;28;20458;-66
2023/03/25 12:02:40;;;;;;;0.80;0.53;;;24.20;54.80;;;;;;5073242;28;20442;-66
2023/03/25 12:05:14;;;;;;;0.50;0.50;;;24.10;55.10;;;;;;5072494;28;20426;-65
2023/03/25 12:07:43;;;;;;;1.00;0.53;;;24.00;55.20;;;;;;5072303;28;20548;-66
2023/03/25 12:10:18;;;;;;;0.70;0.70;;;24.00;55.50;;;;;;5064645;28;20466;-66
2023/03/25 12:12:57;;;;;;;0.80;0.60;;;24.10;55.60;;;;;;5071507;28;20945;-66
2023/03/25 12:15:36;;;;;;;0.60;0.53;;;24.20;55.30;;;;;;5060294;28;20544;-66
2023/03/25 12:18:30;;;;;;;0.60;0.40;;;24.30;54.80;;;;;;5051878;28;20557;-65
2023/03/25 12:21:07;;;;;;;0.70;0.57;;;24.30;54.80;;;;;;5066607;28;20524;-66
2023/03/25 12:23:46;;;;;;;0.90;0.57;;;24.30;54.80;;;;;;5072367;28;20520;-65
2023/03/25 12:26:18;;;;;;;0.60;0.50;;;24.20;54.90;;;;;;5073181;28;20526;-65
2023/03/25 12:29:17;;;;;;;0.63;0.40;;;24.10;54.80;;;;;;5071957;28;20431;-66
2023/03/25 12:32:01;;;;;;;0.40;0.40;;;24.00;55.10;;;;;;5071809;28;20840;-64
2023/03/25 12:34:40;;;;;;;0.60;0.57;;;23.90;55.50;;;;;;5071473;28;20560;-65
2023/03/25 12:37:23;;;;;;;0.77;0.50;;;23.90;55.30;;;;;;5068894;28;20464;-64
2023/03/25 12:40:05;;;;;;;1.13;0.67;;;23.80;55.30;;;;;;5060940;28;20543;-65
2023/03/25 12:42:44;;;;;;;0.80;0.50;;;23.80;55.60;;;;;;5072224;28;20437;-65
2023/03/25 12:45:31;;;;;;;0.60;0.43;;;23.70;55.60;;;;;;5054356;28;20649;-64
2023/03/25 12:48:10;;;;;;;1.17;0.50;;;23.70;55.70;;;;;;5072319;28;20457;-65
2023/03/25 12:50:50;;;;;;;0.80;0.60;;;23.70;56.00;;;;;;5071136;28;20432;-65
2023/03/25 12:53:31;;;;;;;0.90;0.53;;;23.70;55.90;;;;;;5070215;28;20564;-65
2023/03/25 12:56:13;;;;;;;0.40;0.40;;;23.60;55.90;;;;;;5072054;28;20481;-65
2023/03/25 12:59:07;;;;;;;0.30;0.30;;;23.60;55.90;;;;;;5071846;28;20453;-64
2023/03/25 13:01:46;;;;;;;0.47;0.47;;;23.60;55.90;;;;;;5072221;28;20971;-65
2023/03/25 13:04:37;;;;;;;0.90;0.70;;;23.50;56.20;;;;;;5053253;28;20777;-64
2023/03/25 13:07:12;;;;;;;0.70;0.40;;;23.70;56.20;;;;;;5071882;28;20432;-64
2023/03/25 13:09:52;;;;;;;0.50;0.40;;;23.80;56.00;;;;;;5070442;28;20532;-64